createdAt,value
2023-02-17T00:00:14.372Z,33.60
2023-02-17T00:02:40.725Z,33.83
2023-02-17T00:05:07.099Z,33.68
2023-02-17T00:07:33.438Z,33.83
2023-02-17T00:10:00.024Z,33.75
2023-02-17T00:12:26.356Z,33.70
2023-02-17T00:14:52.667Z,33.79
2023-02-17T00:17:19.034Z,33.71
2023-02-17T00:19:45.527Z,33.57
2023-02-17T00:22:11.855Z,33.68
2023-02-17T00:24:38.603Z,33.71
2023-02-17T00:27:05.029Z,33.60
2023-02-17T00:29:31.397Z,33.65
2023-02-17T00:31:57.771Z,33.71
2023-02-17T00:34:24.154Z,33.81
2023-02-17T00:36:50.474Z,33.89
2023-02-17T00:39:16.962Z,33.71
2023-02-17T00:41:43.288Z,33.66
2023-02-17T00:44:17.189Z,33.56
2023-02-17T00:46:43.754Z,33.83
2023-02-17T00:49:14.475Z,33.86
2023-02-17T00:51:40.796Z,33.78
2023-02-17T00:54:07.115Z,33.83
2023-02-17T00:56:33.428Z,33.82
2023-02-17T00:58:59.740Z,33.90
2023-02-17T01:01:26.063Z,33.78
2023-02-17T01:03:52.375Z,33.83
2023-02-17T01:06:21.775Z,33.77
2023-02-17T01:08:48.153Z,33.70
2023-02-17T01:11:18.052Z,33.67
2023-02-17T01:13:44.606Z,33.79
2023-02-17T01:16:37.406Z,33.87
2023-02-17T01:19:04.172Z,33.83
2023-02-17T01:21:30.484Z,33.61
2023-02-17T01:23:57.262Z,33.67
2023-02-17T01:26:24.239Z,33.94
2023-02-17T01:28:50.672Z,33.98
2023-02-17T01:31:17.074Z,34.05
2023-02-17T01:33:43.484Z,33.83
2023-02-17T01:36:10.348Z,33.97
2023-02-17T01:38:36.766Z,33.99
2023-02-17T01:41:03.142Z,34.04
2023-02-17T01:43:29.459Z,33.91
2023-02-17T01:45:56.294Z,33.89
2023-02-17T01:48:23.049Z,34.12
2023-02-17T01:50:52.408Z,33.94
2023-02-17T01:53:20.376Z,34.14
2023-02-17T01:55:46.668Z,34.07
2023-02-17T01:58:13.719Z,33.98
2023-02-17T02:00:40.032Z,34.08
2023-02-17T02:03:06.772Z,34.07
2023-02-17T02:05:33.092Z,33.86
2023-02-17T02:07:59.456Z,33.95
2023-02-17T02:10:25.774Z,33.96
2023-02-17T02:12:52.860Z,34.03
2023-02-17T02:15:22.749Z,33.98
2023-02-17T02:17:48.984Z,33.89
2023-02-17T02:20:15.251Z,33.89
2023-02-17T02:22:44.503Z,33.89
2023-02-17T02:25:18.147Z,33.91
2023-02-17T02:27:51.732Z,34.02
2023-02-17T02:30:21.113Z,34.07
2023-02-17T02:32:50.521Z,34.10
2023-02-17T02:35:16.751Z,34.14
2023-02-17T02:37:44.119Z,34.19
2023-02-17T02:40:10.449Z,33.95
2023-02-17T02:42:36.790Z,34.10
2023-02-17T02:45:05.482Z,34.17
2023-02-17T02:47:48.482Z,34.14
2023-02-17T02:50:16.275Z,34.26
2023-02-17T02:52:46.417Z,34.10
2023-02-17T02:55:15.583Z,34.26
2023-02-17T02:57:48.050Z,34.00
2023-02-17T03:00:17.229Z,34.16
2023-02-17T03:02:52.305Z,33.96
2023-02-17T03:05:39.139Z,34.01
2023-02-17T03:08:10.340Z,33.91
2023-02-17T03:10:36.676Z,33.83
2023-02-17T03:13:03.050Z,33.87
2023-02-17T03:15:30.456Z,33.94
2023-02-17T03:17:57.813Z,33.94
2023-02-17T03:20:24.137Z,34.00
2023-02-17T03:22:50.673Z,34.05
2023-02-17T03:25:16.994Z,34.05
2023-02-17T03:27:43.381Z,34.05
2023-02-17T03:30:09.997Z,34.09
2023-02-17T03:32:36.341Z,34.23
2023-02-17T03:35:02.688Z,34.15
2023-02-17T03:37:28.987Z,34.36
2023-02-17T03:39:55.534Z,34.25
2023-02-17T03:42:21.915Z,34.22
2023-02-17T03:44:48.246Z,34.03
2023-02-17T03:47:14.661Z,33.78
2023-02-17T03:49:41.211Z,33.83
2023-02-17T03:52:07.534Z,33.79
2023-02-17T03:54:33.848Z,33.91
2023-02-17T03:57:01.143Z,33.84
2023-02-17T03:59:27.680Z,33.75
2023-02-17T04:01:53.992Z,33.77
2023-02-17T04:04:20.348Z,33.81
2023-02-17T04:06:46.686Z,33.98
2023-02-17T04:09:13.063Z,34.00
2023-02-17T04:11:39.630Z,33.91
2023-02-17T04:14:05.968Z,34.16
2023-02-17T04:16:32.284Z,34.20
2023-02-17T04:18:58.617Z,34.10
2023-02-17T04:21:24.928Z,34.18
2023-02-17T04:23:51.265Z,33.97
2023-02-17T04:26:17.937Z,34.11
2023-02-17T04:28:44.546Z,33.91
2023-02-17T04:31:11.245Z,34.06
2023-02-17T04:33:37.997Z,34.35
2023-02-17T04:36:04.906Z,34.21
2023-02-17T04:38:31.617Z,34.32
2023-02-17T04:40:58.048Z,34.17
2023-02-17T04:43:25.059Z,34.06
2023-02-17T04:45:51.414Z,34.31
2023-02-17T04:48:17.865Z,34.11
2023-02-17T04:50:44.203Z,34.20
2023-02-17T04:53:10.521Z,34.29
2023-02-17T04:55:37.123Z,34.12
2023-02-17T04:58:03.437Z,34.08
2023-02-17T05:00:30.497Z,34.13
2023-02-17T05:02:56.805Z,33.99
2023-02-17T05:05:23.144Z,33.95
2023-02-17T05:07:49.769Z,34.05
2023-02-17T05:10:16.440Z,33.93
2023-02-17T05:12:42.746Z,33.95
2023-02-17T05:15:09.201Z,33.92
2023-02-17T05:17:35.512Z,33.87
2023-02-17T05:20:01.927Z,34.11
2023-02-17T05:22:28.240Z,33.93
2023-02-17T05:24:54.592Z,34.04
2023-02-17T05:27:20.905Z,33.97
2023-02-17T05:29:47.293Z,33.92
2023-02-17T05:32:13.617Z,34.06
2023-02-17T05:34:39.936Z,34.25
2023-02-17T05:37:06.257Z,34.05
2023-02-17T05:39:32.578Z,33.92
2023-02-17T05:41:58.922Z,33.92
2023-02-17T05:44:25.979Z,34.12
2023-02-17T05:46:52.304Z,34.44
2023-02-17T05:49:18.631Z,34.42
2023-02-17T05:51:45.181Z,34.13
2023-02-17T05:54:11.524Z,34.07
2023-02-17T05:56:37.846Z,34.42
2023-02-17T05:59:04.161Z,34.33
2023-02-17T06:01:30.511Z,34.63
2023-02-17T06:03:56.924Z,34.87
2023-02-17T06:06:23.240Z,34.90
2023-02-17T06:08:49.551Z,34.40
2023-02-17T06:11:15.863Z,34.39
2023-02-17T06:13:42.187Z,34.29
2023-02-17T06:16:08.767Z,34.18
2023-02-17T06:18:35.294Z,34.21
2023-02-17T06:21:01.601Z,34.24
2023-02-17T06:23:27.986Z,34.19
2023-02-17T06:25:54.294Z,34.21
2023-02-17T06:28:20.611Z,34.33
2023-02-17T06:30:46.932Z,34.24
2023-02-17T06:33:13.235Z,34.31
2023-02-17T06:35:39.562Z,34.32
2023-02-17T06:38:06.265Z,34.36
2023-02-17T06:40:32.845Z,34.34
2023-02-17T06:42:59.164Z,34.47
2023-02-17T06:45:25.520Z,34.32
2023-02-17T06:47:51.843Z,34.31
2023-02-17T06:50:18.211Z,34.34
2023-02-17T06:52:44.525Z,34.19
2023-02-17T06:55:10.872Z,34.47
2023-02-17T06:57:37.418Z,34.27
2023-02-17T07:00:04.481Z,34.32
2023-02-17T07:02:31.140Z,34.34
2023-02-17T07:04:57.495Z,34.42
2023-02-17T07:07:23.801Z,34.49
2023-02-17T07:09:50.227Z,34.80
2023-02-17T07:12:16.535Z,34.79
2023-02-17T07:14:43.014Z,34.70
2023-02-17T07:17:09.384Z,35.05
2023-02-17T07:19:35.785Z,34.96
2023-02-17T07:22:02.699Z,35.35
2023-02-17T07:24:29.025Z,35.05
2023-02-17T07:26:56.113Z,34.87
2023-02-17T07:29:22.657Z,34.82
2023-02-17T07:31:49.012Z,34.73
2023-02-17T07:34:15.351Z,34.61
2023-02-17T07:36:41.745Z,34.50
2023-02-17T07:39:08.055Z,34.42
2023-02-17T07:41:34.692Z,34.84
2023-02-17T07:44:01.012Z,34.63
2023-02-17T07:46:27.380Z,34.93
2023-02-17T07:48:53.731Z,34.81
2023-02-17T07:51:21.242Z,34.88
2023-02-17T07:53:47.894Z,35.25
2023-02-17T07:56:14.739Z,35.43
2023-02-17T07:58:41.349Z,35.33
2023-02-17T08:01:08.135Z,35.33
2023-02-17T08:03:34.469Z,35.47
2023-02-17T08:06:00.960Z,35.51
2023-02-17T08:08:45.834Z,35.25
2023-02-17T08:11:31.124Z,35.40
2023-02-17T08:13:57.444Z,35.34
2023-02-17T08:16:23.898Z,35.27
2023-02-17T08:18:50.241Z,35.44
2023-02-17T08:21:16.573Z,35.48
2023-02-17T08:23:45.173Z,35.72
2023-02-17T08:26:11.756Z,35.65
2023-02-17T08:28:38.077Z,35.68
2023-02-17T08:31:04.646Z,35.27
2023-02-17T08:33:31.040Z,35.43
2023-02-17T08:35:57.629Z,35.15
2023-02-17T08:38:24.031Z,34.96
2023-02-17T08:40:50.394Z,35.01
2023-02-17T08:43:16.700Z,35.01
2023-02-17T08:45:43.046Z,35.08
2023-02-17T08:48:09.407Z,35.00
2023-02-17T08:50:36.035Z,34.92
2023-02-17T08:53:02.358Z,35.06
2023-02-17T08:55:33.486Z,35.08
2023-02-17T08:58:07.139Z,35.23
2023-02-17T09:00:33.537Z,35.17
2023-02-17T09:02:59.906Z,35.05
2023-02-17T09:05:26.822Z,35.21
2023-02-17T09:07:53.156Z,35.19
2023-02-17T09:10:19.481Z,35.24
2023-02-17T09:12:46.067Z,35.13
2023-02-17T09:15:12.429Z,35.14
2023-02-17T09:17:39.821Z,34.98
2023-02-17T09:20:16.234Z,35.03
2023-02-17T09:22:51.429Z,35.18
2023-02-17T09:25:17.826Z,35.01
2023-02-17T09:27:44.199Z,35.44
2023-02-17T09:30:10.768Z,35.25
2023-02-17T09:32:37.145Z,35.17
2023-02-17T09:35:05.994Z,35.16
2023-02-17T09:37:32.347Z,35.21
2023-02-17T09:39:58.652Z,35.17
2023-02-17T09:42:25.476Z,34.93
2023-02-17T09:44:56.119Z,34.78
2023-02-17T09:47:23.463Z,34.59
2023-02-17T09:50:03.489Z,34.67
2023-02-17T09:52:48.942Z,34.54
2023-02-17T09:55:16.245Z,34.47
2023-02-17T09:57:54.283Z,34.53
2023-02-17T10:00:25.228Z,34.61
2023-02-17T10:02:56.054Z,34.67
2023-02-17T10:05:22.744Z,34.72
2023-02-17T10:07:50.856Z,34.77
2023-02-17T10:10:21.098Z,34.57
2023-02-17T10:12:49.482Z,34.80
2023-02-17T10:15:21.262Z,34.83
2023-02-17T10:17:52.772Z,34.85
2023-02-17T10:20:34.483Z,34.90
2023-02-17T10:23:10.593Z,35.07
2023-02-17T10:25:50.818Z,35.07
2023-02-17T10:28:37.385Z,35.25
2023-02-17T10:31:04.845Z,34.98
2023-02-17T10:33:38.176Z,34.80
2023-02-17T10:36:10.472Z,34.88
2023-02-17T10:39:12.360Z,35.16
2023-02-17T10:41:38.684Z,34.95
2023-02-17T10:44:18.227Z,35.00
2023-02-17T10:46:44.653Z,35.07
2023-02-17T10:49:14.747Z,35.67
2023-02-17T10:51:41.071Z,34.88
2023-02-17T10:54:07.811Z,35.46
2023-02-17T10:56:35.616Z,35.21
2023-02-17T10:59:06.318Z,35.10
2023-02-17T11:01:32.651Z,35.17
2023-02-17T11:04:02.976Z,34.95
2023-02-17T11:06:29.324Z,34.92
2023-02-17T11:08:59.901Z,34.85
2023-02-17T11:11:26.903Z,34.93
2023-02-17T11:14:04.446Z,34.92
2023-02-17T11:16:41.396Z,34.94
2023-02-17T11:19:08.109Z,34.78
2023-02-17T11:21:34.712Z,34.97
2023-02-17T11:24:02.191Z,34.77
2023-02-17T11:26:29.617Z,34.92
2023-02-17T11:29:06.269Z,35.00
2023-02-17T11:31:32.704Z,35.00
2023-02-17T11:33:59.045Z,35.23
2023-02-17T11:36:29.189Z,35.13
2023-02-17T11:38:55.652Z,35.20
2023-02-17T11:41:22.065Z,34.84
2023-02-17T11:43:55.319Z,34.98
2023-02-17T11:46:22.118Z,35.22
2023-02-17T11:48:56.067Z,34.96
2023-02-17T11:51:28.389Z,35.67
2023-02-17T11:54:01.130Z,35.77
2023-02-17T11:56:33.076Z,35.90
2023-02-17T11:59:07.018Z,35.53
2023-02-17T12:01:45.269Z,35.52
2023-02-17T12:04:12.004Z,35.38
2023-02-17T12:06:41.501Z,34.84
2023-02-17T12:09:10.914Z,34.58
2023-02-17T12:11:40.998Z,34.73
2023-02-17T12:14:19.728Z,34.64
2023-02-17T12:16:57.612Z,34.54
2023-02-17T12:19:30.923Z,34.50
2023-02-17T12:22:15.796Z,34.54
2023-02-17T12:25:05.449Z,34.54
2023-02-17T12:27:50.523Z,34.58
2023-02-17T12:30:29.281Z,34.42
2023-02-17T12:32:58.988Z,34.64
2023-02-17T12:35:25.982Z,34.56
2023-02-17T12:37:56.792Z,34.33
2023-02-17T12:40:34.048Z,34.89
2023-02-17T12:43:01.331Z,34.46
2023-02-17T12:45:33.300Z,35.17
2023-02-17T12:48:01.400Z,35.00
2023-02-17T12:50:32.863Z,34.64
2023-02-17T12:53:00.467Z,34.72
2023-02-17T12:55:52.823Z,34.90
2023-02-17T12:58:22.687Z,35.15
2023-02-17T13:01:09.535Z,34.94
2023-02-17T13:03:35.992Z,35.16
2023-02-17T13:06:03.138Z,34.96
2023-02-17T13:08:31.902Z,34.96
2023-02-17T13:11:01.984Z,34.80
2023-02-17T13:13:29.132Z,34.52
2023-02-17T13:16:11.844Z,34.74
2023-02-17T13:18:39.066Z,34.88
2023-02-17T13:21:20.530Z,34.72
2023-02-17T13:23:58.022Z,34.50
2023-02-17T13:26:25.573Z,34.67
2023-02-17T13:28:53.274Z,34.88
2023-02-17T13:31:23.842Z,34.96
2023-02-17T13:33:51.258Z,34.83
2023-02-17T13:36:22.324Z,34.94
2023-02-17T13:38:52.434Z,35.13
2023-02-17T13:41:18.764Z,35.13
2023-02-17T13:43:45.101Z,35.30
2023-02-17T13:46:13.211Z,35.22
2023-02-17T13:48:39.535Z,35.29
2023-02-17T13:51:06.090Z,35.15
2023-02-17T13:53:33.161Z,35.72
2023-02-17T13:56:00.329Z,35.27
2023-02-17T13:58:28.235Z,35.20
2023-02-17T14:00:54.943Z,35.16
2023-02-17T14:03:22.498Z,35.10
2023-02-17T14:05:49.243Z,35.01
2023-02-17T14:08:34.375Z,35.25
2023-02-17T14:11:10.997Z,35.69
2023-02-17T14:13:37.744Z,35.42
2023-02-17T14:16:06.718Z,35.57
2023-02-17T14:18:37.849Z,35.34
2023-02-17T14:21:11.042Z,35.40
2023-02-17T14:23:41.340Z,35.17
2023-02-17T14:26:11.474Z,35.64
2023-02-17T14:28:37.821Z,35.67
2023-02-17T14:31:10.651Z,35.62
2023-02-17T14:33:37.125Z,35.87
2023-02-17T14:36:06.318Z,35.36
2023-02-17T14:38:35.066Z,35.44
2023-02-17T14:41:01.432Z,35.62
2023-02-17T14:43:27.788Z,35.50
2023-02-17T14:45:54.160Z,35.38
2023-02-17T14:48:20.527Z,35.55
2023-02-17T14:50:47.011Z,35.69
2023-02-17T14:53:14.159Z,35.62
2023-02-17T14:55:48.164Z,35.59
2023-02-17T14:58:17.723Z,35.70
2023-02-17T15:00:44.033Z,35.42
2023-02-17T15:03:10.510Z,35.57
2023-02-17T15:05:36.910Z,35.53
2023-02-17T15:08:03.515Z,35.59
2023-02-17T15:10:32.765Z,35.52
2023-02-17T15:12:59.101Z,35.55
2023-02-17T15:15:25.698Z,35.74
2023-02-17T15:17:52.036Z,35.71
2023-02-17T15:20:18.418Z,35.42
2023-02-17T15:22:44.785Z,35.53
2023-02-17T15:25:14.830Z,35.45
2023-02-17T15:27:41.454Z,35.34
2023-02-17T15:30:11.428Z,35.34
2023-02-17T15:32:38.375Z,35.44
2023-02-17T15:35:10.334Z,35.40
2023-02-17T15:37:36.983Z,35.25
2023-02-17T15:40:03.308Z,35.49
2023-02-17T15:42:30.002Z,35.52
2023-02-17T15:44:56.322Z,35.55
2023-02-17T15:47:22.660Z,35.47
2023-02-17T15:49:48.979Z,35.70
2023-02-17T15:52:15.531Z,35.51
2023-02-17T15:54:42.913Z,35.72
2023-02-17T15:57:14.020Z,35.82
2023-02-17T15:59:40.368Z,35.50
2023-02-17T16:02:15.783Z,35.85
2023-02-17T16:04:43.263Z,35.62
2023-02-17T16:07:09.843Z,35.72
2023-02-17T16:09:36.150Z,35.69
2023-02-17T16:12:02.786Z,35.96
2023-02-17T16:14:35.848Z,35.95
2023-02-17T16:17:02.543Z,36.00
2023-02-17T16:19:28.982Z,35.98
2023-02-17T16:21:55.314Z,35.81
2023-02-17T16:24:22.010Z,35.83
2023-02-17T16:26:48.328Z,35.83
2023-02-17T16:29:15.342Z,35.71
2023-02-17T16:31:41.778Z,35.32
2023-02-17T16:34:08.153Z,35.09
2023-02-17T16:36:34.743Z,34.95
2023-02-17T16:39:02.802Z,35.09
2023-02-17T16:41:29.116Z,35.13
2023-02-17T16:43:55.438Z,35.26
2023-02-17T16:46:27.508Z,35.00
2023-02-17T16:48:54.220Z,35.37
2023-02-17T16:51:21.340Z,35.37
2023-02-17T16:53:47.701Z,35.55
2023-02-17T16:56:15.150Z,35.67
2023-02-17T16:58:41.470Z,36.23
2023-02-17T17:01:12.511Z,36.40
2023-02-17T17:03:40.084Z,36.98
2023-02-17T17:06:14.953Z,36.79
2023-02-17T17:08:41.268Z,37.17
2023-02-17T17:11:08.740Z,37.22
2023-02-17T17:13:35.057Z,37.69
2023-02-17T17:16:01.366Z,38.10
2023-02-17T17:18:27.683Z,37.89
2023-02-17T17:20:54.004Z,38.27
2023-02-17T17:23:20.375Z,38.71
2023-02-17T17:25:46.875Z,38.45
2023-02-17T17:28:14.272Z,38.82
2023-02-17T17:30:40.589Z,38.89
2023-02-17T17:33:07.089Z,38.83
2023-02-17T17:35:33.401Z,38.60
2023-02-17T17:37:59.713Z,38.83
2023-02-17T17:40:27.262Z,38.32
2023-02-17T17:42:53.562Z,38.39
2023-02-17T17:45:19.876Z,38.05
2023-02-17T17:47:46.192Z,38.08
2023-02-17T17:50:13.535Z,37.81
2023-02-17T17:52:39.934Z,37.84
2023-02-17T17:55:06.409Z,37.70
2023-02-17T17:57:34.816Z,37.88
2023-02-17T18:00:01.145Z,37.96
2023-02-17T18:02:27.490Z,37.67
2023-02-17T18:04:53.948Z,37.33
2023-02-17T18:07:20.280Z,37.56
2023-02-17T18:09:46.587Z,37.73
2023-02-17T18:12:14.107Z,37.49
2023-02-17T18:14:40.534Z,37.39
2023-02-17T18:17:06.988Z,37.45
2023-02-17T18:19:33.307Z,37.65
2023-02-17T18:21:59.728Z,37.78
2023-02-17T18:24:26.059Z,37.56
2023-02-17T18:26:52.488Z,37.61
2023-02-17T18:29:19.085Z,37.27
2023-02-17T18:31:45.497Z,37.14
2023-02-17T18:34:11.954Z,37.43
2023-02-17T18:36:38.391Z,37.43
2023-02-17T18:39:05.119Z,37.23
2023-02-17T18:41:32.760Z,36.99
2023-02-17T18:43:59.720Z,36.96
2023-02-17T18:46:27.177Z,37.04
2023-02-17T18:48:53.897Z,37.28
2023-02-17T18:51:23.102Z,36.92
2023-02-17T18:53:52.288Z,36.79
2023-02-17T18:56:20.991Z,36.54
2023-02-17T18:58:47.542Z,36.24
2023-02-17T19:01:14.784Z,36.28
2023-02-17T19:03:41.107Z,36.48
2023-02-17T19:06:11.328Z,36.43
2023-02-17T19:08:37.904Z,36.17
2023-02-17T19:11:04.212Z,36.16
2023-02-17T19:13:30.526Z,36.30
2023-02-17T19:16:03.992Z,36.28
2023-02-17T19:18:30.328Z,36.25
2023-02-17T19:20:56.839Z,36.25
2023-02-17T19:23:23.138Z,36.15
2023-02-17T19:25:49.463Z,36.02
2023-02-17T19:28:15.784Z,36.12
2023-02-17T19:30:42.206Z,36.35
2023-02-17T19:33:08.515Z,36.03
2023-02-17T19:35:34.826Z,36.18
2023-02-17T19:38:01.139Z,36.16
2023-02-17T19:40:27.461Z,36.24
2023-02-17T19:42:53.779Z,36.21
2023-02-17T19:45:20.090Z,35.98
2023-02-17T19:47:46.455Z,35.98
2023-02-17T19:50:12.770Z,35.96
2023-02-17T19:52:39.272Z,35.85
2023-02-17T19:55:05.980Z,36.10
2023-02-17T19:57:32.292Z,35.91
2023-02-17T19:59:58.609Z,35.80
2023-02-17T20:02:25.009Z,35.56
2023-02-17T20:04:51.347Z,35.49
2023-02-17T20:07:17.656Z,35.37
2023-02-17T20:09:43.981Z,35.47
2023-02-17T20:12:10.356Z,35.27
2023-02-17T20:14:36.900Z,35.52
2023-02-17T20:17:03.256Z,35.56
2023-02-17T20:19:29.564Z,35.46
2023-02-17T20:21:55.917Z,35.37
2023-02-17T20:24:22.757Z,35.58
2023-02-17T20:26:50.818Z,35.55
2023-02-17T20:29:17.127Z,35.40
2023-02-17T20:31:43.592Z,35.72
2023-02-17T20:34:21.536Z,35.43
2023-02-17T20:36:47.867Z,35.51
2023-02-17T20:39:14.607Z,35.49
2023-02-17T20:41:40.926Z,35.30
2023-02-17T20:44:07.254Z,35.35
2023-02-17T20:46:33.697Z,35.52
2023-02-17T20:49:00.045Z,35.14
2023-02-17T20:51:26.356Z,35.26
2023-02-17T20:53:52.673Z,35.25
2023-02-17T20:56:19.869Z,35.43
2023-02-17T20:58:46.188Z,35.22
2023-02-17T21:01:12.559Z,35.30
2023-02-17T21:03:38.886Z,35.20
2023-02-17T21:06:06.622Z,35.11
2023-02-17T21:08:33.137Z,34.99
2023-02-17T21:10:59.477Z,35.64
2023-02-17T21:13:25.799Z,35.93
2023-02-17T21:15:52.164Z,36.38
2023-02-17T21:18:18.478Z,36.64
2023-02-17T21:20:44.877Z,36.34
2023-02-17T21:23:11.179Z,36.49
2023-02-17T21:25:37.507Z,36.34
2023-02-17T21:28:03.820Z,35.91
2023-02-17T21:30:30.184Z,35.80
2023-02-17T21:32:56.622Z,35.64
2023-02-17T21:35:23.259Z,35.22
2023-02-17T21:37:49.566Z,35.25
2023-02-17T21:40:15.901Z,35.20
2023-02-17T21:43:01.028Z,35.26
2023-02-17T21:45:27.403Z,35.07
2023-02-17T21:47:53.717Z,34.93
2023-02-17T21:50:21.269Z,35.01
2023-02-17T21:52:47.590Z,34.89
2023-02-17T21:55:13.924Z,35.58
2023-02-17T21:57:40.365Z,36.53
2023-02-17T22:00:08.648Z,36.58
2023-02-17T22:02:34.964Z,36.85
2023-02-17T22:05:01.283Z,36.42
2023-02-17T22:07:27.607Z,36.33
2023-02-17T22:09:53.932Z,36.47
2023-02-17T22:12:20.263Z,36.44
2023-02-17T22:14:46.603Z,36.44
2023-02-17T22:17:12.937Z,36.05
2023-02-17T22:19:39.259Z,36.61
2023-02-17T22:22:05.566Z,35.71
2023-02-17T22:24:31.899Z,35.31
2023-02-17T22:26:58.222Z,35.17
2023-02-17T22:29:24.552Z,35.28
2023-02-17T22:31:55.625Z,35.65
2023-02-17T22:34:22.224Z,35.74
2023-02-17T22:36:48.538Z,35.50
2023-02-17T22:39:14.862Z,35.72
2023-02-17T22:41:41.187Z,35.88
2023-02-17T22:44:07.823Z,35.83
2023-02-17T22:46:34.327Z,35.66
2023-02-17T22:49:00.684Z,35.78
2023-02-17T22:51:28.212Z,36.17
2023-02-17T22:53:54.570Z,35.49
2023-02-17T22:56:21.145Z,34.93
2023-02-17T22:58:47.600Z,34.89
2023-02-17T23:01:17.523Z,34.97
2023-02-17T23:03:44.477Z,34.86
2023-02-17T23:06:14.366Z,34.80
2023-02-17T23:08:40.706Z,34.83
2023-02-17T23:11:07.639Z,35.16
2023-02-17T23:13:33.950Z,34.99
2023-02-17T23:16:00.486Z,35.40
2023-02-17T23:18:28.321Z,35.76
2023-02-17T23:20:54.966Z,35.73
2023-02-17T23:23:21.298Z,35.81
2023-02-17T23:25:48.903Z,35.82
2023-02-17T23:28:15.447Z,35.73
2023-02-17T23:30:42.360Z,35.73
2023-02-17T23:33:08.976Z,35.71
2023-02-17T23:35:38.701Z,35.52
2023-02-17T23:38:05.037Z,35.72
2023-02-17T23:40:31.373Z,35.77
2023-02-17T23:42:57.701Z,36.21
2023-02-17T23:45:24.050Z,35.93
2023-02-17T23:47:50.404Z,35.69
2023-02-17T23:50:17.259Z,35.63
2023-02-17T23:52:44.110Z,35.09
2023-02-17T23:55:10.426Z,35.47
2023-02-17T23:57:39.178Z,35.66
